createdAt,value
2022-10-05T00:00:22.007Z,89.47
2022-10-05T00:01:22.007Z,89.47
2022-10-05T00:02:21.939Z,89.47
2022-10-05T00:03:21.951Z,89.58
2022-10-05T00:04:21.964Z,89.67
2022-10-05T00:05:21.944Z,89.61
2022-10-05T00:06:21.904Z,89.61
2022-10-05T00:07:21.872Z,89.72
2022-10-05T00:08:21.872Z,89.72
2022-10-05T00:09:21.898Z,89.82
2022-10-05T00:10:21.832Z,89.82
2022-10-05T00:11:21.837Z,89.82
2022-10-05T00:12:21.815Z,89.82
2022-10-05T00:13:21.827Z,89.82
2022-10-05T00:14:21.798Z,89.72
2022-10-05T00:15:21.776Z,89.82
2022-10-05T00:16:21.837Z,89.82
2022-10-05T00:17:21.738Z,89.72
2022-10-05T00:18:21.735Z,89.82
2022-10-05T00:19:21.720Z,89.82
2022-10-05T00:20:21.706Z,89.82
2022-10-05T00:21:21.760Z,89.72
2022-10-05T00:22:21.691Z,89.82
2022-10-05T00:23:21.664Z,89.82
2022-10-05T00:24:21.706Z,90.02
2022-10-05T00:25:21.636Z,90.02
2022-10-05T00:26:21.623Z,90.02
2022-10-05T00:27:21.602Z,90.12
2022-10-05T00:28:21.699Z,90.23
2022-10-05T00:29:21.584Z,90.33
2022-10-05T00:30:21.590Z,90.43
2022-10-05T00:31:21.595Z,90.33
2022-10-05T00:32:21.597Z,90.12
2022-10-05T00:33:21.533Z,90.12
2022-10-05T00:34:21.546Z,90.12
2022-10-05T00:35:21.550Z,90.02
2022-10-05T00:36:21.502Z,90.12
2022-10-05T00:37:21.533Z,90.02
2022-10-05T00:38:21.480Z,89.92
2022-10-05T00:39:21.495Z,89.92
2022-10-05T00:40:21.493Z,89.92
2022-10-05T00:41:21.457Z,89.92
2022-10-05T00:42:21.444Z,89.92
2022-10-05T00:43:21.479Z,89.92
2022-10-05T00:44:21.406Z,89.92
2022-10-05T00:45:21.401Z,90.12
2022-10-05T00:46:21.509Z,90.02
2022-10-05T00:47:21.386Z,90.12
2022-10-05T00:48:21.352Z,90.17
2022-10-05T00:49:21.338Z,90.17
2022-10-05T00:50:21.309Z,90.27
2022-10-05T00:51:21.296Z,90.37
2022-10-05T00:52:21.309Z,90.27
2022-10-05T00:53:21.271Z,90.27
2022-10-05T00:54:21.294Z,90.37
2022-10-05T00:55:21.299Z,90.27
2022-10-05T00:56:21.220Z,90.27
2022-10-05T00:57:21.215Z,90.27
2022-10-05T00:58:21.245Z,90.27
2022-10-05T00:59:21.189Z,90.37
2022-10-05T01:00:21.181Z,90.27
2022-10-05T01:01:21.239Z,90.27
2022-10-05T01:02:21.222Z,90.37
2022-10-05T01:03:21.170Z,90.27
2022-10-05T01:04:21.130Z,90.47
2022-10-05T01:05:21.191Z,90.47
2022-10-05T01:06:21.100Z,90.47
2022-10-05T01:07:21.088Z,90.47
2022-10-05T01:08:21.112Z,90.37
2022-10-05T01:09:21.061Z,90.47
2022-10-05T01:10:21.058Z,90.47
2022-10-05T01:11:21.030Z,90.37
2022-10-05T01:12:21.030Z,90.27
2022-10-05T01:13:21.026Z,90.37
2022-10-05T01:14:21.002Z,90.47
2022-10-05T01:15:20.996Z,90.37
2022-10-05T01:16:21.036Z,90.27
2022-10-05T01:17:20.977Z,90.27
2022-10-05T01:18:21.040Z,90.17
2022-10-05T01:19:20.932Z,90.06
2022-10-05T01:20:20.961Z,89.97
2022-10-05T01:21:20.956Z,89.97
2022-10-05T01:22:20.919Z,89.97
2022-10-05T01:23:20.937Z,90.06
2022-10-05T01:24:20.878Z,90.06
2022-10-05T01:25:20.861Z,90.06
2022-10-05T01:26:20.846Z,89.97
2022-10-05T01:27:20.852Z,90.06
2022-10-05T01:28:20.934Z,90.17
2022-10-05T01:29:20.799Z,90.17
2022-10-05T01:30:20.806Z,89.97
2022-10-05T01:31:20.933Z,89.97
2022-10-05T01:32:20.793Z,89.86
2022-10-05T01:33:20.761Z,89.97
2022-10-05T01:34:20.755Z,89.97
2022-10-05T01:35:20.759Z,90.06
2022-10-05T01:36:20.751Z,90.27
2022-10-05T01:37:20.766Z,90.17
2022-10-05T01:38:20.762Z,90.06
2022-10-05T01:39:20.693Z,90.27
2022-10-05T01:40:20.667Z,90.27
2022-10-05T01:41:20.637Z,90.37
2022-10-05T01:42:20.642Z,90.27
2022-10-05T01:43:20.669Z,90.47
2022-10-05T01:44:20.613Z,90.58
2022-10-05T01:45:20.596Z,90.58
2022-10-05T01:46:20.637Z,90.47
2022-10-05T01:47:20.560Z,90.58
2022-10-05T01:48:20.563Z,90.72
2022-10-05T01:49:20.572Z,90.82
2022-10-05T01:50:20.546Z,90.72
2022-10-05T01:51:20.525Z,90.82
2022-10-05T01:52:20.507Z,90.72
2022-10-05T01:53:20.510Z,90.92
2022-10-05T01:54:20.525Z,91.03
2022-10-05T01:55:20.495Z,91.03
2022-10-05T01:56:20.464Z,91.13
2022-10-05T01:57:20.453Z,91.03
2022-10-05T01:58:20.468Z,91.23
2022-10-05T01:59:20.411Z,91.13
2022-10-05T02:00:20.421Z,91.13
2022-10-05T02:01:20.495Z,91.13
2022-10-05T02:02:20.392Z,91.23
2022-10-05T02:03:20.416Z,91.23
2022-10-05T02:04:42.731Z,91.33
2022-10-05T02:05:21.428Z,91.54
2022-10-05T02:06:20.310Z,91.54
2022-10-05T02:07:20.322Z,91.44
2022-10-05T02:08:20.347Z,91.33
2022-10-05T02:09:20.278Z,91.48
2022-10-05T02:10:20.285Z,91.48
2022-10-05T02:11:20.261Z,91.48
2022-10-05T02:12:20.239Z,91.58
2022-10-05T02:13:20.237Z,91.58
2022-10-05T02:14:20.225Z,91.48
2022-10-05T02:15:20.267Z,91.58
2022-10-05T02:16:20.316Z,91.78
2022-10-05T02:17:20.220Z,91.78
2022-10-05T02:18:20.149Z,91.89
2022-10-05T02:19:20.175Z,91.89
2022-10-05T02:20:20.180Z,91.89
2022-10-05T02:21:20.113Z,91.89
2022-10-05T02:22:20.099Z,91.89
2022-10-05T02:23:20.101Z,91.89
2022-10-05T02:24:20.075Z,91.89
2022-10-05T02:25:20.117Z,91.99
2022-10-05T02:26:20.076Z,91.89
2022-10-05T02:27:20.048Z,91.99
2022-10-05T02:28:20.116Z,92.10
2022-10-05T02:29:20.014Z,91.99
2022-10-05T02:30:20.008Z,91.99
2022-10-05T02:31:20.042Z,91.99
2022-10-05T02:32:19.964Z,91.99
2022-10-05T02:33:19.972Z,92.10
2022-10-05T02:34:19.956Z,92.10
2022-10-05T02:35:19.966Z,92.03
2022-10-05T02:36:19.923Z,92.14
2022-10-05T02:37:19.906Z,92.24
2022-10-05T02:38:19.893Z,92.34
2022-10-05T02:39:19.885Z,92.34
2022-10-05T02:40:19.899Z,92.24
2022-10-05T02:41:19.879Z,92.24
2022-10-05T02:42:19.839Z,92.34
2022-10-05T02:43:19.848Z,92.34
2022-10-05T02:44:19.801Z,92.34
2022-10-05T02:45:19.793Z,92.24
2022-10-05T02:46:19.844Z,92.44
2022-10-05T02:47:19.779Z,92.44
2022-10-05T02:48:19.849Z,92.44
2022-10-05T02:49:19.743Z,92.44
2022-10-05T02:50:19.801Z,92.34
2022-10-05T02:51:19.703Z,92.24
2022-10-05T02:52:19.728Z,92.24
2022-10-05T02:53:19.704Z,92.34
2022-10-05T02:54:19.708Z,92.24
2022-10-05T02:55:19.686Z,92.34
2022-10-05T02:56:19.640Z,92.34
2022-10-05T02:57:19.629Z,92.34
2022-10-05T02:58:19.629Z,92.34
2022-10-05T02:59:19.620Z,92.34
2022-10-05T03:00:19.616Z,92.34
2022-10-05T03:01:19.659Z,92.24
2022-10-05T03:02:19.632Z,92.24
2022-10-05T03:03:19.599Z,92.24
2022-10-05T03:04:19.537Z,92.24
2022-10-05T03:05:19.554Z,92.14
2022-10-05T03:06:19.501Z,92.14
2022-10-05T03:07:19.521Z,92.03
2022-10-05T03:08:19.494Z,92.03
2022-10-05T03:09:19.477Z,91.99
2022-10-05T03:10:19.460Z,91.93
2022-10-05T03:11:19.435Z,91.89
2022-10-05T03:12:19.439Z,91.93
2022-10-05T03:13:19.429Z,92.03
2022-10-05T03:14:19.398Z,92.03
2022-10-05T03:15:19.407Z,91.89
2022-10-05T03:16:19.461Z,91.99
2022-10-05T03:17:19.398Z,91.89
2022-10-05T03:18:19.387Z,91.78
2022-10-05T03:19:19.358Z,91.78
2022-10-05T03:20:19.352Z,91.58
2022-10-05T03:21:19.337Z,91.58
2022-10-05T03:22:19.300Z,91.48
2022-10-05T03:23:19.291Z,91.27
2022-10-05T03:24:19.275Z,91.38
2022-10-05T03:25:19.257Z,91.27
2022-10-05T03:26:19.283Z,91.27
2022-10-05T03:27:19.241Z,91.48
2022-10-05T03:28:19.273Z,91.38
2022-10-05T03:29:19.222Z,91.38
2022-10-05T03:30:19.190Z,91.38
2022-10-05T03:31:19.327Z,91.27
2022-10-05T03:32:19.176Z,91.17
2022-10-05T03:33:19.155Z,91.07
2022-10-05T03:34:19.215Z,91.07
2022-10-05T03:35:19.135Z,91.07
2022-10-05T03:36:19.128Z,91.17
2022-10-05T03:37:19.138Z,91.13
2022-10-05T03:38:19.103Z,91.23
2022-10-05T03:39:19.104Z,91.13
2022-10-05T03:40:19.124Z,91.13
2022-10-05T03:41:19.055Z,90.82
2022-10-05T03:42:19.035Z,91.03
2022-10-05T03:43:19.058Z,91.03
2022-10-05T03:44:19.044Z,91.03
2022-10-05T03:45:19.042Z,91.03
2022-10-05T03:46:19.019Z,91.03
2022-10-05T03:47:18.967Z,91.03
2022-10-05T03:48:19.011Z,90.82
2022-10-05T03:49:18.964Z,90.62
2022-10-05T03:50:18.930Z,90.72
2022-10-05T03:51:19.068Z,90.92
2022-10-05T03:52:19.782Z,90.72
2022-10-05T03:53:18.932Z,90.82
2022-10-05T03:54:18.907Z,90.72
2022-10-05T03:55:18.867Z,90.72
2022-10-05T03:56:18.862Z,90.72
2022-10-05T03:57:18.847Z,90.97
2022-10-05T03:58:18.854Z,90.82
2022-10-05T03:59:18.826Z,90.72
2022-10-05T04:00:18.799Z,90.72
2022-10-05T04:01:18.848Z,90.72
2022-10-05T04:02:18.815Z,90.62
2022-10-05T04:03:19.046Z,90.72
2022-10-05T04:04:18.771Z,90.62
2022-10-05T04:05:18.734Z,90.52
2022-10-05T04:06:18.720Z,90.52
2022-10-05T04:07:18.726Z,90.41
2022-10-05T04:08:18.704Z,90.52
2022-10-05T04:09:18.768Z,90.41
2022-10-05T04:10:18.706Z,90.41
2022-10-05T04:11:18.679Z,90.52
2022-10-05T04:12:18.653Z,90.52
2022-10-05T04:13:18.638Z,90.52
2022-10-05T04:14:18.676Z,90.62
2022-10-05T04:15:19.153Z,90.52
2022-10-05T04:16:18.643Z,90.52
2022-10-05T04:17:18.596Z,90.52
2022-10-05T04:18:18.642Z,90.52
2022-10-05T04:19:18.556Z,90.52
2022-10-05T04:20:18.541Z,90.72
2022-10-05T04:21:22.805Z,90.52
2022-10-05T04:22:19.527Z,90.62
2022-10-05T04:23:18.514Z,90.62
2022-10-05T04:24:18.510Z,90.82
2022-10-05T04:25:18.473Z,90.72
2022-10-05T04:26:18.473Z,90.72
2022-10-05T04:27:18.451Z,90.41
2022-10-05T04:28:19.172Z,90.62
2022-10-05T04:29:18.424Z,90.62
2022-10-05T04:30:18.412Z,90.62
2022-10-05T04:31:18.487Z,90.62
2022-10-05T04:32:18.384Z,90.66
2022-10-05T04:33:18.415Z,90.62
2022-10-05T04:34:18.418Z,90.52
2022-10-05T04:35:18.360Z,90.41
2022-10-05T04:36:18.325Z,90.45
2022-10-05T04:37:18.330Z,90.52
2022-10-05T04:38:18.336Z,90.45
2022-10-05T04:39:18.408Z,90.45
2022-10-05T04:40:18.283Z,90.56
2022-10-05T04:41:18.280Z,90.52
2022-10-05T04:42:18.297Z,90.56
2022-10-05T04:43:18.274Z,90.66
2022-10-05T04:44:18.235Z,90.66
2022-10-05T04:45:18.233Z,90.77
2022-10-05T04:46:18.248Z,90.77
2022-10-05T04:47:18.194Z,90.66
2022-10-05T04:48:18.174Z,90.77
2022-10-05T04:49:18.228Z,90.77
2022-10-05T04:50:18.151Z,90.77
2022-10-05T04:51:18.149Z,90.97
2022-10-05T04:52:18.148Z,90.97
2022-10-05T04:53:18.102Z,90.97
2022-10-05T04:54:18.181Z,91.07
2022-10-05T04:55:18.210Z,91.07
2022-10-05T04:56:18.152Z,91.07
2022-10-05T04:57:19.143Z,91.07
2022-10-05T04:58:18.039Z,91.17
2022-10-05T04:59:18.041Z,91.17
2022-10-05T05:00:18.031Z,91.17
2022-10-05T05:01:18.155Z,91.17
2022-10-05T05:02:18.022Z,91.27
2022-10-05T05:03:17.994Z,91.27
2022-10-05T05:04:18.068Z,91.27
2022-10-05T05:05:17.985Z,91.38
2022-10-05T05:06:18.605Z,91.69
2022-10-05T05:07:18.077Z,91.58
2022-10-05T05:08:17.929Z,91.48
2022-10-05T05:09:17.979Z,91.48
2022-10-05T05:10:17.921Z,91.38
2022-10-05T05:11:21.153Z,91.58
2022-10-05T05:12:18.903Z,91.44
2022-10-05T05:13:17.873Z,91.44
2022-10-05T05:14:17.843Z,91.13
2022-10-05T05:15:17.860Z,90.82
2022-10-05T05:16:17.846Z,90.62
2022-10-05T05:17:17.838Z,90.62
2022-10-05T05:18:17.886Z,90.82
2022-10-05T05:19:17.785Z,90.72
2022-10-05T05:20:17.775Z,90.92
2022-10-05T05:21:17.764Z,90.82
2022-10-05T05:22:17.746Z,90.92
2022-10-05T05:23:17.720Z,91.95
2022-10-05T05:24:17.708Z,91.91
2022-10-05T05:25:17.728Z,90.02
2022-10-05T05:26:17.775Z,88.90
2022-10-05T05:27:24.688Z,88.84
2022-10-05T05:28:17.734Z,89.35
2022-10-05T05:29:18.369Z,89.65
2022-10-05T05:30:17.604Z,89.90
2022-10-05T05:31:17.674Z,90.21
2022-10-05T05:32:17.596Z,90.52
2022-10-05T05:33:17.593Z,90.62
2022-10-05T05:34:17.595Z,90.62
2022-10-05T05:35:17.553Z,90.82
2022-10-05T05:36:22.865Z,90.72
2022-10-05T05:37:18.563Z,90.72
2022-10-05T05:38:17.534Z,90.72
2022-10-05T05:39:17.585Z,90.62
2022-10-05T05:40:17.545Z,90.72
2022-10-05T05:41:18.226Z,90.72
2022-10-05T05:42:18.350Z,90.82
2022-10-05T05:43:17.466Z,90.62
2022-10-05T05:44:18.432Z,90.52
2022-10-05T05:45:17.458Z,90.72
2022-10-05T05:46:18.022Z,90.62
2022-10-05T05:47:17.469Z,90.72
2022-10-05T05:48:17.401Z,90.62
2022-10-05T05:49:17.402Z,90.52
2022-10-05T05:50:17.352Z,90.52
2022-10-05T05:51:17.345Z,90.41
2022-10-05T05:52:17.364Z,90.31
2022-10-05T05:53:17.322Z,90.31
2022-10-05T05:54:17.320Z,90.31
2022-10-05T05:55:17.306Z,90.31
2022-10-05T05:56:17.302Z,90.21
2022-10-05T05:57:17.271Z,90.17
2022-10-05T05:58:17.280Z,90.17
2022-10-05T05:59:17.259Z,89.97
2022-10-05T06:00:17.426Z,89.97
2022-10-05T06:01:32.328Z,89.86
2022-10-05T06:02:18.328Z,89.56
2022-10-05T06:03:17.319Z,89.65
2022-10-05T06:04:17.181Z,89.56
2022-10-05T06:05:17.210Z,89.65
2022-10-05T06:06:17.169Z,89.56
2022-10-05T06:07:17.149Z,89.65
2022-10-05T06:08:17.144Z,89.56
2022-10-05T06:09:17.119Z,89.45
2022-10-05T06:10:17.203Z,89.35
2022-10-05T06:11:17.088Z,89.25
2022-10-05T06:12:17.078Z,89.11
2022-10-05T06:13:17.049Z,89.11
2022-10-05T06:14:17.058Z,89.00
2022-10-05T06:15:17.028Z,89.00
2022-10-05T06:16:17.075Z,89.00
2022-10-05T06:17:17.008Z,88.90
2022-10-05T06:18:16.986Z,88.90
2022-10-05T06:19:16.986Z,89.00
2022-10-05T06:20:16.966Z,88.70
2022-10-05T06:21:16.982Z,88.90
2022-10-05T06:22:16.945Z,88.70
2022-10-05T06:23:16.930Z,88.45
2022-10-05T06:24:16.917Z,88.35
2022-10-05T06:25:16.940Z,88.55
2022-10-05T06:26:16.889Z,88.14
2022-10-05T06:27:16.874Z,88.14
2022-10-05T06:28:16.895Z,88.04
2022-10-05T06:29:16.862Z,87.94
2022-10-05T06:30:16.843Z,88.04
2022-10-05T06:31:16.897Z,87.90
2022-10-05T06:32:16.816Z,87.73
2022-10-05T06:33:16.792Z,87.70
2022-10-05T06:34:16.791Z,87.79
2022-10-05T06:35:16.764Z,87.79
2022-10-05T06:36:16.764Z,87.59
2022-10-05T06:37:16.754Z,89.02
2022-10-05T06:38:16.733Z,87.76
2022-10-05T06:39:16.724Z,86.94
2022-10-05T06:40:16.713Z,87.45
2022-10-05T06:41:16.714Z,86.83
2022-10-05T06:42:16.698Z,87.71
2022-10-05T06:43:16.666Z,87.10
2022-10-05T06:44:16.662Z,85.74
2022-10-05T06:45:16.632Z,85.74
2022-10-05T06:46:16.877Z,85.90
2022-10-05T06:47:16.659Z,84.78
2022-10-05T06:48:16.602Z,85.28
2022-10-05T06:49:16.710Z,84.78
2022-10-05T06:50:16.583Z,84.47
2022-10-05T06:51:16.560Z,83.90
2022-10-05T06:52:16.551Z,84.31
2022-10-05T06:53:16.530Z,84.96
2022-10-05T06:54:16.554Z,85.06
2022-10-05T06:55:16.656Z,85.16
2022-10-05T06:56:16.497Z,85.27
2022-10-05T06:57:16.489Z,84.92
2022-10-05T06:58:16.470Z,85.02
2022-10-05T06:59:16.470Z,84.82
2022-10-05T07:00:16.460Z,84.82
2022-10-05T07:01:16.552Z,85.02
2022-10-05T07:02:16.452Z,84.61
2022-10-05T07:03:16.451Z,84.72
2022-10-05T07:04:16.410Z,84.51
2022-10-05T07:05:16.482Z,84.72
2022-10-05T07:06:16.360Z,84.82
2022-10-05T07:07:16.348Z,84.51
2022-10-05T07:08:16.351Z,84.51
2022-10-05T07:09:16.357Z,84.61
2022-10-05T07:10:16.535Z,84.61
2022-10-05T07:11:16.297Z,84.51
2022-10-05T07:12:16.309Z,84.61
2022-10-05T07:13:16.277Z,84.72
2022-10-05T07:14:16.312Z,84.72
2022-10-05T07:15:16.262Z,85.02
2022-10-05T07:16:16.272Z,84.61
2022-10-05T07:17:16.216Z,84.51
2022-10-05T07:18:16.215Z,84.72
2022-10-05T07:19:16.239Z,84.61
2022-10-05T07:20:16.206Z,84.82
2022-10-05T07:21:16.176Z,84.61
2022-10-05T07:22:16.457Z,84.31
2022-10-05T07:23:16.148Z,84.41
2022-10-05T07:24:16.156Z,84.41
2022-10-05T07:25:16.125Z,84.51
2022-10-05T07:26:16.555Z,84.51
2022-10-05T07:27:16.108Z,84.41
2022-10-05T07:28:16.130Z,84.20
2022-10-05T07:29:16.072Z,84.11
2022-10-05T07:30:16.076Z,84.11
2022-10-05T07:31:16.114Z,83.96
2022-10-05T07:32:16.038Z,83.96
2022-10-05T07:33:16.018Z,83.96
2022-10-05T07:34:16.003Z,83.86
2022-10-05T07:35:15.994Z,83.65
2022-10-05T07:36:16.035Z,83.56
2022-10-05T07:37:16.030Z,83.21
2022-10-05T07:38:15.971Z,82.90
2022-10-05T07:39:15.932Z,82.90
2022-10-05T07:40:16.000Z,82.80
2022-10-05T07:41:15.894Z,82.80
2022-10-05T07:42:15.902Z,82.70
2022-10-05T07:43:15.902Z,82.26
2022-10-05T07:44:15.881Z,82.46
2022-10-05T07:45:15.853Z,82.26
2022-10-05T07:46:15.939Z,82.15
2022-10-05T07:47:15.845Z,82.05
2022-10-05T07:48:15.842Z,81.85
2022-10-05T07:49:15.804Z,81.95
2022-10-05T07:50:15.878Z,81.65
2022-10-05T07:51:15.812Z,81.65
2022-10-05T07:52:15.760Z,81.65
2022-10-05T07:53:15.749Z,81.74
2022-10-05T07:54:15.745Z,81.95
2022-10-05T07:55:15.759Z,81.74
2022-10-05T07:56:15.720Z,81.60
2022-10-05T07:57:15.708Z,81.60
2022-10-05T07:58:15.751Z,81.40
2022-10-05T07:59:15.689Z,81.40
2022-10-05T08:00:15.671Z,81.20
2022-10-05T08:01:15.633Z,80.99
2022-10-05T08:02:15.751Z,80.45
2022-10-05T08:03:15.640Z,80.45
2022-10-05T08:04:15.618Z,80.55
2022-10-05T08:05:15.586Z,80.45
2022-10-05T08:06:15.589Z,80.35
2022-10-05T08:07:15.611Z,80.21
2022-10-05T08:08:18.117Z,79.80
2022-10-05T08:09:15.540Z,80.00
2022-10-05T08:10:15.529Z,79.80
2022-10-05T08:11:15.516Z,79.60
2022-10-05T08:12:15.502Z,79.60
2022-10-05T08:13:15.478Z,79.29
2022-10-05T08:14:15.509Z,79.39
2022-10-05T08:15:15.460Z,79.39
2022-10-05T08:16:15.531Z,79.05
2022-10-05T08:17:15.437Z,79.05
2022-10-05T08:18:15.538Z,79.05
2022-10-05T08:19:15.396Z,78.85
2022-10-05T08:20:15.418Z,78.64
2022-10-05T08:21:15.395Z,78.85
2022-10-05T08:22:15.388Z,78.75
2022-10-05T08:23:15.357Z,78.34
2022-10-05T08:24:15.367Z,78.14
2022-10-05T08:25:15.330Z,78.34
2022-10-05T08:26:15.428Z,78.61
2022-10-05T08:27:15.325Z,78.51
2022-10-05T08:28:15.342Z,78.30
2022-10-05T08:29:15.375Z,78.20
2022-10-05T08:30:15.398Z,77.86
2022-10-05T08:31:15.305Z,77.86
2022-10-05T08:32:15.255Z,77.76
2022-10-05T08:33:15.216Z,77.56
2022-10-05T08:34:15.227Z,77.66
2022-10-05T08:35:15.203Z,77.66
2022-10-05T08:36:15.217Z,77.66
2022-10-05T08:37:15.171Z,77.76
2022-10-05T08:38:15.194Z,77.56
2022-10-05T08:39:15.154Z,77.56
2022-10-05T08:40:15.133Z,77.45
2022-10-05T08:41:15.136Z,77.45
2022-10-05T08:42:15.114Z,77.66
2022-10-05T08:43:15.095Z,77.66
2022-10-05T08:45:25.679Z,77.45
2022-10-05T08:46:25.729Z,77.45
2022-10-05T08:47:26.355Z,77.56
2022-10-05T08:48:25.612Z,77.45
2022-10-05T08:49:25.610Z,77.42
2022-10-05T08:50:25.592Z,77.12
2022-10-05T08:51:25.576Z,77.01
2022-10-05T08:52:25.578Z,77.12
2022-10-05T08:53:25.552Z,76.91
2022-10-05T08:54:25.529Z,76.91
2022-10-05T08:55:25.517Z,76.81
2022-10-05T08:56:28.762Z,76.78
2022-10-05T08:57:25.523Z,76.67
2022-10-05T08:58:25.476Z,76.67
2022-10-05T08:59:25.466Z,76.78
2022-10-05T09:00:25.441Z,76.67
2022-10-05T09:01:25.491Z,76.43
2022-10-05T09:02:25.484Z,76.03
2022-10-05T09:03:25.414Z,76.33
2022-10-05T09:04:25.415Z,76.13
2022-10-05T09:05:25.409Z,76.23
2022-10-05T09:06:25.374Z,76.43
2022-10-05T09:07:25.386Z,76.43
2022-10-05T09:08:25.346Z,76.13
2022-10-05T09:09:25.335Z,76.03
2022-10-05T09:10:25.326Z,76.13
2022-10-05T09:11:25.308Z,76.13
2022-10-05T09:12:25.302Z,76.09
2022-10-05T09:13:25.304Z,75.99
2022-10-05T09:14:25.275Z,75.69
2022-10-05T09:15:26.511Z,75.69
2022-10-05T09:16:25.363Z,75.59
2022-10-05T09:17:25.262Z,75.38
2022-10-05T09:18:25.225Z,75.15
2022-10-05T09:19:25.213Z,74.95
2022-10-05T09:20:25.197Z,75.15
2022-10-05T09:21:25.190Z,74.95
2022-10-05T09:22:25.220Z,75.04
2022-10-05T09:23:25.150Z,74.84
2022-10-05T09:24:26.046Z,74.71
2022-10-05T09:25:25.136Z,74.71
2022-10-05T09:26:25.113Z,74.51
2022-10-05T09:27:25.591Z,74.30
2022-10-05T09:28:25.184Z,74.20
2022-10-05T09:29:25.123Z,73.90
2022-10-05T09:30:25.073Z,73.90
2022-10-05T09:31:25.125Z,74.00
2022-10-05T09:32:25.070Z,73.80
2022-10-05T09:33:25.091Z,74.20
2022-10-05T09:34:25.016Z,74.20
2022-10-05T09:35:25.013Z,74.40
2022-10-05T09:36:25.006Z,74.30
2022-10-05T09:37:24.986Z,74.30
2022-10-05T09:38:24.966Z,74.51
2022-10-05T09:39:24.962Z,74.40
2022-10-05T09:40:24.932Z,74.30
2022-10-05T09:41:25.007Z,73.90
2022-10-05T09:42:25.149Z,74.20
2022-10-05T09:43:24.903Z,74.54
2022-10-05T09:44:25.019Z,74.54
2022-10-05T09:45:24.878Z,74.74
2022-10-05T09:46:24.903Z,75.04
2022-10-05T09:47:24.872Z,75.04
2022-10-05T09:48:24.842Z,75.01
2022-10-05T09:49:24.821Z,75.11
2022-10-05T09:50:24.822Z,75.11
2022-10-05T09:51:24.802Z,74.81
2022-10-05T09:52:24.821Z,74.51
2022-10-05T09:53:24.787Z,74.60
2022-10-05T09:54:24.753Z,74.60
2022-10-05T09:55:24.758Z,74.91
2022-10-05T09:56:24.754Z,74.51
2022-10-05T09:57:24.739Z,74.51
2022-10-05T09:58:24.722Z,74.81
2022-10-05T09:59:24.710Z,74.81
2022-10-05T10:00:24.699Z,74.91
2022-10-05T10:01:39.956Z,75.11
2022-10-05T10:02:25.807Z,75.01
2022-10-05T10:03:24.741Z,75.21
2022-10-05T10:04:24.700Z,75.21
2022-10-05T10:05:24.641Z,75.01
2022-10-05T10:06:24.605Z,75.11
2022-10-05T10:07:24.589Z,75.31
2022-10-05T10:08:24.569Z,75.48
2022-10-05T10:09:24.567Z,75.18
2022-10-05T10:10:24.562Z,75.07
2022-10-05T10:11:24.546Z,74.98
2022-10-05T10:12:24.588Z,74.98
2022-10-05T10:13:25.587Z,75.07
2022-10-05T10:14:24.505Z,75.18
2022-10-05T10:15:24.499Z,75.18
2022-10-05T10:16:24.607Z,75.28
2022-10-05T10:17:24.531Z,75.38
2022-10-05T10:18:24.458Z,75.07
2022-10-05T10:19:24.459Z,74.77
2022-10-05T10:20:24.435Z,74.98
2022-10-05T10:21:24.440Z,74.77
2022-10-05T10:22:24.399Z,74.47
2022-10-05T10:23:24.419Z,74.43
2022-10-05T10:24:24.368Z,74.57
2022-10-05T10:25:24.372Z,74.47
2022-10-05T10:26:24.339Z,74.67
2022-10-05T10:27:24.351Z,74.67
2022-10-05T10:28:24.411Z,74.87
2022-10-05T10:29:24.396Z,75.07
2022-10-05T10:30:26.380Z,75.14
2022-10-05T10:31:24.353Z,75.04
2022-10-05T10:32:24.267Z,75.14
2022-10-05T10:33:24.269Z,75.04
2022-10-05T10:34:24.273Z,74.94
2022-10-05T10:35:24.365Z,74.74
2022-10-05T10:36:24.248Z,74.74
2022-10-05T10:37:24.221Z,74.80
2022-10-05T10:38:24.233Z,74.90
2022-10-05T10:39:24.187Z,74.70
2022-10-05T10:40:24.186Z,74.50
2022-10-05T10:41:24.163Z,74.50
2022-10-05T10:42:26.152Z,74.30
2022-10-05T10:43:24.147Z,74.50
2022-10-05T10:44:24.116Z,74.60
2022-10-05T10:45:24.108Z,74.50
2022-10-05T10:46:24.195Z,74.50
2022-10-05T10:47:24.083Z,74.50
2022-10-05T10:48:24.085Z,74.60
2022-10-05T10:49:24.048Z,74.60
2022-10-05T10:50:24.063Z,74.60
2022-10-05T10:51:24.024Z,74.66
2022-10-05T10:52:24.035Z,74.66
2022-10-05T10:53:24.006Z,74.37
2022-10-05T10:54:23.990Z,74.06
2022-10-05T10:55:23.967Z,73.86
2022-10-05T10:56:23.990Z,73.96
2022-10-05T10:57:23.964Z,73.82
2022-10-05T10:58:24.669Z,73.52
2022-10-05T10:59:26.596Z,73.32
2022-10-05T11:00:24.975Z,73.32
2022-10-05T11:01:23.955Z,73.22
2022-10-05T11:02:23.947Z,73.08
2022-10-05T11:03:23.890Z,72.98
2022-10-05T11:04:24.335Z,72.68
2022-10-05T11:05:23.834Z,72.34
2022-10-05T11:06:23.826Z,72.04
2022-10-05T11:07:23.835Z,72.14
2022-10-05T11:08:23.796Z,71.94
2022-10-05T11:09:23.800Z,71.91
2022-10-05T11:10:23.794Z,72.20
2022-10-05T11:11:23.767Z,71.91
2022-10-05T11:12:23.753Z,72.31
2022-10-05T11:13:23.748Z,72.11
2022-10-05T11:14:23.743Z,71.60
2022-10-05T11:15:23.720Z,71.87
2022-10-05T11:16:23.730Z,71.97
2022-10-05T11:17:23.692Z,72.17
2022-10-05T11:18:23.719Z,71.97
2022-10-05T11:19:35.083Z,71.17
2022-10-05T11:20:24.692Z,71.37
2022-10-05T11:21:23.630Z,71.57
2022-10-05T11:22:23.642Z,71.53
2022-10-05T11:23:23.619Z,71.03
2022-10-05T11:24:23.610Z,71.33
2022-10-05T11:25:23.617Z,71.33
2022-10-05T11:26:23.613Z,71.03
2022-10-05T11:27:30.592Z,71.44
2022-10-05T11:28:23.639Z,71.64
2022-10-05T11:29:23.539Z,71.84
2022-10-05T11:30:23.571Z,71.73
2022-10-05T11:31:23.579Z,71.64
2022-10-05T11:32:23.508Z,70.73
2022-10-05T11:33:23.500Z,70.53
2022-10-05T11:34:23.477Z,70.73
2022-10-05T11:35:23.458Z,70.79
2022-10-05T11:36:23.451Z,70.50
2022-10-05T11:37:23.463Z,70.50
2022-10-05T11:38:23.445Z,70.29
2022-10-05T11:39:23.404Z,70.46
2022-10-05T11:40:23.423Z,70.36
2022-10-05T11:41:23.411Z,69.85
2022-10-05T11:42:23.418Z,70.29
2022-10-05T11:43:23.366Z,70.50
2022-10-05T11:44:23.345Z,71.00
2022-10-05T11:45:23.366Z,71.00
2022-10-05T11:46:23.405Z,71.20
2022-10-05T11:47:23.345Z,71.20
2022-10-05T11:48:23.332Z,71.13
2022-10-05T11:49:23.335Z,71.64
2022-10-05T11:50:23.780Z,71.73
2022-10-05T11:51:28.484Z,71.73
2022-10-05T11:52:23.930Z,71.64
2022-10-05T11:53:23.967Z,71.53
2022-10-05T11:54:24.007Z,71.73
2022-10-05T11:55:23.916Z,71.73
2022-10-05T11:56:23.260Z,71.53
2022-10-05T11:57:23.456Z,71.33
2022-10-05T11:58:24.145Z,71.53
2022-10-05T11:59:24.154Z,71.53
2022-10-05T12:00:25.239Z,71.64
2022-10-05T12:01:24.297Z,71.13
2022-10-05T12:02:23.259Z,71.30
2022-10-05T12:03:24.332Z,71.40
2022-10-05T12:04:24.156Z,71.60
2022-10-05T12:05:24.604Z,71.60
2022-10-05T12:06:23.155Z,71.30
2022-10-05T12:07:23.068Z,71.40
2022-10-05T12:08:23.923Z,70.90
2022-10-05T12:09:23.168Z,71.16
2022-10-05T12:10:24.885Z,70.86
2022-10-05T12:11:23.257Z,71.06
2022-10-05T12:12:23.294Z,70.96
2022-10-05T12:13:22.960Z,70.96
2022-10-05T12:14:23.384Z,70.96
2022-10-05T12:15:22.941Z,70.86
2022-10-05T12:16:22.972Z,70.76
2022-10-05T12:17:23.060Z,70.66
2022-10-05T12:18:23.559Z,70.53
2022-10-05T12:19:22.918Z,70.32
2022-10-05T12:20:22.879Z,70.23
2022-10-05T12:21:23.681Z,69.92
2022-10-05T12:22:23.629Z,69.59
2022-10-05T12:23:22.978Z,69.79
2022-10-05T12:24:26.868Z,69.09
2022-10-05T12:25:22.849Z,68.78
2022-10-05T12:26:23.619Z,69.09
2022-10-05T12:27:22.856Z,69.38
2022-10-05T12:28:23.815Z,68.15
2022-10-05T12:29:22.800Z,67.94
2022-10-05T12:30:22.779Z,67.65
2022-10-05T12:31:22.870Z,66.84
2022-10-05T12:32:22.737Z,66.14
2022-10-05T12:33:22.740Z,66.14
2022-10-05T12:34:22.759Z,66.24
2022-10-05T12:35:36.570Z,66.24
2022-10-05T12:36:31.888Z,65.94
2022-10-05T12:37:23.686Z,65.94
2022-10-05T12:38:22.760Z,65.84
2022-10-05T12:39:22.871Z,66.03
2022-10-05T12:40:22.816Z,65.94
2022-10-05T12:41:23.146Z,65.73
2022-10-05T12:42:22.707Z,65.84
2022-10-05T12:43:22.660Z,65.84
2022-10-05T12:44:22.749Z,65.13
2022-10-05T12:45:22.670Z,65.03
2022-10-05T12:46:22.574Z,65.03
2022-10-05T12:47:22.579Z,64.60
2022-10-05T12:48:22.878Z,64.73
2022-10-05T12:49:22.519Z,64.63
2022-10-05T12:50:22.971Z,65.03
2022-10-05T12:51:22.540Z,65.03
2022-10-05T12:52:23.958Z,64.83
2022-10-05T12:53:22.767Z,64.73